createdAt,value
2018-08-13T00:01:47.237Z,13.59
2018-08-13T00:04:49.506Z,13.57
2018-08-13T00:07:51.830Z,13.65
2018-08-13T00:10:54.130Z,13.64
2018-08-13T00:13:56.415Z,13.57
2018-08-13T00:16:58.724Z,13.58
2018-08-13T00:20:01.034Z,13.64
2018-08-13T00:23:03.406Z,13.63
2018-08-13T00:26:05.698Z,13.59
2018-08-13T00:29:07.909Z,13.56
2018-08-13T00:32:10.162Z,13.59
2018-08-13T00:35:12.607Z,13.53
2018-08-13T00:38:14.796Z,13.49
2018-08-13T00:41:17.128Z,13.48
2018-08-13T00:44:19.397Z,13.44
2018-08-13T00:47:21.698Z,13.37
2018-08-13T00:50:23.975Z,13.37
2018-08-13T00:53:26.177Z,13.33
2018-08-13T00:56:29.104Z,13.30
2018-08-13T00:59:31.358Z,13.29
2018-08-13T01:02:33.523Z,13.25
2018-08-13T01:05:35.840Z,13.08
2018-08-13T01:08:38.063Z,12.81
2018-08-13T01:11:40.417Z,12.49
2018-08-13T01:14:43.665Z,12.47
2018-08-13T01:17:46.986Z,12.47
2018-08-13T01:20:49.912Z,12.62
2018-08-13T01:23:52.153Z,12.70
2018-08-13T01:26:54.488Z,12.73
2018-08-13T01:29:56.760Z,12.69
2018-08-13T01:32:58.986Z,12.65
2018-08-13T01:36:01.285Z,12.64
2018-08-13T01:39:05.110Z,12.71
2018-08-13T01:42:07.352Z,12.81
2018-08-13T01:45:11.777Z,12.90
2018-08-13T01:48:14.074Z,12.94
2018-08-13T01:51:17.151Z,12.95
2018-08-13T01:54:19.549Z,12.90
2018-08-13T01:57:21.890Z,12.89
2018-08-13T02:00:24.241Z,12.88
2018-08-13T02:03:26.556Z,12.87
2018-08-13T02:06:28.852Z,12.90
2018-08-13T02:09:34.778Z,12.90
2018-08-13T02:12:37.148Z,12.88
2018-08-13T02:15:39.402Z,12.85
2018-08-13T02:18:42.742Z,12.83
2018-08-13T02:21:45.077Z,12.85
2018-08-13T02:24:47.397Z,12.85
2018-08-13T02:27:49.668Z,12.86
2018-08-13T02:30:51.873Z,12.87
2018-08-13T02:33:54.165Z,12.85
2018-08-13T02:36:56.477Z,12.86
2018-08-13T02:39:58.761Z,12.87
2018-08-13T02:43:00.957Z,12.88
2018-08-13T02:46:03.347Z,12.92
2018-08-13T02:49:05.681Z,12.92
2018-08-13T02:52:08.008Z,12.90
2018-08-13T02:55:11.137Z,12.82
2018-08-13T02:58:13.375Z,12.81
2018-08-13T03:01:15.959Z,12.80
2018-08-13T03:04:18.260Z,12.78
2018-08-13T03:07:20.755Z,12.77
2018-08-13T03:10:24.106Z,12.74
2018-08-13T03:13:26.353Z,12.45
2018-08-13T03:16:28.574Z,12.15
2018-08-13T03:19:30.887Z,12.11
2018-08-13T03:22:33.100Z,12.11
2018-08-13T03:25:35.520Z,12.16
2018-08-13T03:28:38.012Z,12.16
2018-08-13T03:31:40.380Z,12.23
2018-08-13T03:34:42.642Z,12.35
2018-08-13T03:37:44.956Z,12.45
2018-08-13T03:40:47.309Z,12.43
2018-08-13T03:43:49.628Z,12.40
2018-08-13T03:46:51.881Z,12.38
2018-08-13T03:49:54.220Z,12.37
2018-08-13T03:52:56.447Z,12.36
2018-08-13T03:55:58.720Z,12.37
2018-08-13T03:59:00.977Z,12.39
2018-08-13T04:02:03.435Z,12.30
2018-08-13T04:05:06.220Z,12.41
2018-08-13T04:08:08.561Z,12.50
2018-08-13T04:11:10.933Z,12.85
2018-08-13T04:14:13.425Z,13.23
2018-08-13T04:17:15.817Z,13.19
2018-08-13T04:20:18.068Z,13.01
2018-08-13T04:23:20.386Z,13.12
2018-08-13T04:26:22.662Z,13.36
2018-08-13T04:29:25.590Z,13.56
2018-08-13T04:32:27.827Z,13.80
2018-08-13T04:35:30.099Z,14.03
2018-08-13T04:38:32.548Z,14.29
2018-08-13T04:41:35.056Z,14.62
2018-08-13T04:44:37.438Z,14.97
2018-08-13T04:47:40.625Z,15.21
2018-08-13T04:50:42.882Z,15.37
2018-08-13T04:53:45.148Z,15.76
2018-08-13T04:56:47.351Z,16.09
2018-08-13T04:59:49.602Z,16.78
2018-08-13T05:02:51.964Z,18.99
2018-08-13T05:05:54.341Z,19.74
2018-08-13T05:08:56.573Z,17.67
2018-08-13T05:11:58.910Z,16.82
2018-08-13T05:15:01.275Z,15.73
2018-08-13T05:18:03.570Z,15.36
2018-08-13T05:21:05.811Z,15.17
2018-08-13T05:24:08.108Z,15.22
2018-08-13T05:27:10.479Z,15.22
2018-08-13T05:30:13.176Z,14.98
2018-08-13T05:33:15.500Z,15.11
2018-08-13T05:36:17.804Z,15.33
2018-08-13T05:39:20.123Z,15.42
2018-08-13T05:42:22.462Z,15.47
2018-08-13T05:45:24.768Z,15.40
2018-08-13T05:48:27.207Z,15.37
2018-08-13T05:51:29.783Z,14.85
2018-08-13T05:54:32.208Z,14.27
2018-08-13T05:57:35.668Z,13.47
2018-08-13T06:00:38.704Z,13.18
2018-08-13T06:03:41.032Z,13.10
2018-08-13T06:06:43.295Z,13.07
2018-08-13T06:09:45.708Z,13.07
2018-08-13T06:12:48.166Z,13.06
2018-08-13T06:15:50.652Z,13.16
2018-08-13T06:18:53.105Z,13.24
2018-08-13T06:21:55.423Z,13.32
2018-08-13T06:24:57.734Z,13.45
2018-08-13T06:28:00.263Z,13.48
2018-08-13T06:31:02.606Z,13.51
2018-08-13T06:34:05.002Z,13.71
2018-08-13T06:37:07.307Z,13.86
2018-08-13T06:40:09.780Z,13.98
2018-08-13T06:43:15.489Z,13.98
2018-08-13T06:46:17.846Z,14.02
2018-08-13T06:49:20.186Z,13.96
2018-08-13T06:52:22.585Z,13.99
2018-08-13T06:55:25.835Z,14.13
2018-08-13T06:58:28.236Z,14.32
2018-08-13T07:01:31.524Z,14.54
2018-08-13T07:04:36.025Z,14.64
2018-08-13T07:07:39.997Z,14.75
2018-08-13T07:10:42.876Z,14.76
2018-08-13T07:13:45.186Z,14.86
2018-08-13T07:16:47.454Z,14.89
2018-08-13T07:19:51.732Z,14.83
2018-08-13T07:22:54.116Z,14.93
2018-08-13T07:25:56.382Z,14.80
2018-08-13T07:28:58.758Z,14.85
2018-08-13T07:32:01.048Z,15.00
2018-08-13T07:35:03.646Z,15.17
2018-08-13T07:38:06.799Z,15.36
2018-08-13T07:41:09.282Z,15.59
2018-08-13T07:44:13.798Z,15.68
2018-08-13T07:47:16.980Z,15.72
2018-08-13T07:50:21.337Z,15.67
2018-08-13T07:53:23.918Z,15.60
2018-08-13T07:56:26.189Z,15.58
2018-08-13T07:59:29.383Z,15.58
2018-08-13T08:02:31.790Z,15.58
2018-08-13T08:05:34.352Z,15.53
2018-08-13T08:08:36.564Z,15.44
2018-08-13T08:11:39.324Z,15.30
2018-08-13T08:14:41.622Z,15.33
2018-08-13T08:17:44.226Z,15.26
2018-08-13T08:20:46.597Z,15.35
2018-08-13T08:23:48.899Z,15.51
2018-08-13T08:26:51.246Z,15.62
2018-08-13T08:29:54.272Z,15.80
2018-08-13T08:32:56.550Z,16.02
2018-08-13T08:36:00.903Z,16.22
2018-08-13T08:39:08.484Z,16.43
2018-08-13T08:42:12.733Z,16.54
2018-08-13T08:45:19.066Z,16.35
2018-08-13T08:48:21.553Z,16.47
2018-08-13T08:51:31.874Z,16.58
2018-08-13T08:54:34.277Z,16.68
2018-08-13T08:57:36.546Z,16.70
2018-08-13T09:00:38.809Z,16.63
2018-08-13T09:03:41.993Z,16.69
2018-08-13T09:06:44.406Z,16.95
2018-08-13T09:09:46.764Z,17.19
2018-08-13T09:12:49.024Z,17.15
2018-08-13T09:15:51.311Z,17.08
2018-08-13T09:19:04.863Z,17.22
2018-08-13T09:22:18.492Z,17.35
2018-08-13T09:25:32.029Z,17.57
2018-08-13T09:28:45.454Z,17.78
2018-08-13T09:32:25.096Z,17.87
2018-08-13T09:35:34.726Z,18.45
2018-08-13T09:38:37.091Z,18.68
2018-08-13T09:41:39.413Z,18.35
2018-08-13T09:44:41.671Z,18.48
2018-08-13T09:47:45.516Z,19.54
2018-08-13T09:50:47.765Z,20.51
2018-08-13T09:53:50.091Z,20.50
2018-08-13T09:56:52.445Z,20.05
2018-08-13T09:59:54.977Z,20.55
2018-08-13T10:02:57.240Z,21.25
2018-08-13T10:05:59.559Z,21.42
2018-08-13T10:09:01.823Z,20.95
2018-08-13T10:12:04.306Z,21.25
2018-08-13T10:15:07.605Z,21.69
2018-08-13T10:18:09.894Z,21.66
2018-08-13T10:21:12.270Z,21.34
2018-08-13T10:24:14.470Z,21.26
2018-08-13T10:27:16.791Z,22.00
2018-08-13T10:30:19.208Z,21.61
2018-08-13T10:33:21.548Z,21.38
2018-08-13T10:36:24.028Z,21.61
2018-08-13T10:39:26.432Z,21.87
2018-08-13T10:42:28.665Z,21.99
2018-08-13T10:45:30.978Z,21.75
2018-08-13T10:48:33.176Z,21.52
2018-08-13T10:51:35.484Z,21.18
2018-08-13T10:54:37.754Z,21.06
2018-08-13T10:57:40.198Z,22.34
2018-08-13T11:00:42.806Z,23.13
2018-08-13T11:03:45.067Z,22.60
2018-08-13T11:06:47.363Z,22.38
2018-08-13T11:09:49.728Z,21.98
2018-08-13T11:12:51.964Z,21.74
2018-08-13T11:15:54.300Z,20.82
2018-08-13T11:18:56.480Z,20.74
2018-08-13T11:21:58.934Z,21.03
2018-08-13T11:25:01.188Z,22.09
2018-08-13T11:28:03.488Z,23.52
2018-08-13T11:31:06.657Z,23.59
2018-08-13T11:34:08.903Z,23.85
2018-08-13T11:37:11.199Z,23.09
2018-08-13T11:40:14.749Z,22.90
2018-08-13T11:43:16.985Z,22.85
2018-08-13T11:46:19.217Z,22.84
2018-08-13T11:49:21.416Z,23.31
2018-08-13T11:52:23.821Z,23.74
2018-08-13T11:55:25.999Z,23.70
2018-08-13T11:58:28.218Z,23.01
2018-08-13T12:01:31.654Z,23.52
2018-08-13T12:04:33.884Z,23.37
2018-08-13T12:07:36.140Z,23.11
2018-08-13T12:10:38.434Z,22.91
2018-08-13T12:13:40.749Z,23.21
2018-08-13T12:16:43.083Z,23.30
2018-08-13T12:19:45.342Z,23.11
2018-08-13T12:22:48.009Z,23.51
2018-08-13T12:25:51.064Z,23.63
2018-08-13T12:32:01.475Z,23.59
2018-08-13T12:35:04.405Z,23.94
2018-08-13T12:38:18.217Z,23.69
2018-08-13T12:41:20.599Z,24.09
2018-08-13T12:44:22.896Z,23.98
2018-08-13T12:47:26.015Z,23.68
2018-08-13T12:50:28.403Z,24.30
2018-08-13T12:53:30.791Z,24.55
2018-08-13T12:56:33.058Z,24.33
2018-08-13T12:59:35.975Z,24.20
2018-08-13T13:02:38.748Z,24.72
2018-08-13T13:05:41.073Z,24.52
2018-08-13T13:08:43.318Z,24.73
2018-08-13T13:11:46.581Z,24.18
2018-08-13T13:14:49.118Z,24.20
2018-08-13T13:17:51.378Z,24.21
2018-08-13T13:20:54.537Z,24.30
2018-08-13T13:23:56.816Z,24.74
2018-08-13T13:26:59.087Z,24.16
2018-08-13T13:30:01.988Z,23.60
2018-08-13T13:33:04.603Z,23.88
2018-08-13T13:36:07.000Z,24.08
2018-08-13T13:39:09.640Z,24.04
2018-08-13T13:42:11.942Z,23.75
2018-08-13T13:45:15.270Z,23.62
2018-08-13T13:48:18.106Z,23.46
2018-08-13T13:51:20.389Z,23.52
2018-08-13T13:54:22.636Z,24.74
2018-08-13T13:57:25.120Z,24.30
2018-08-13T14:00:27.336Z,23.93
2018-08-13T14:03:29.784Z,23.52
2018-08-13T14:06:32.025Z,23.89
2018-08-13T14:09:34.320Z,24.11
2018-08-13T14:12:36.668Z,23.78
2018-08-13T14:15:38.996Z,23.71
2018-08-13T14:18:41.319Z,23.63
2018-08-13T14:21:43.644Z,23.48
2018-08-13T14:24:45.900Z,23.56
2018-08-13T14:27:48.447Z,23.80
2018-08-13T14:30:50.662Z,24.31
2018-08-13T14:33:53.119Z,25.11
2018-08-13T14:36:55.386Z,25.39
2018-08-13T14:39:57.901Z,25.07
2018-08-13T14:43:00.133Z,24.95
2018-08-13T14:46:05.022Z,24.57
2018-08-13T14:49:07.350Z,24.77
2018-08-13T14:52:09.805Z,25.07
2018-08-13T14:55:13.036Z,24.30
2018-08-13T14:58:15.399Z,23.96
2018-08-13T15:01:17.588Z,23.77
2018-08-13T15:04:19.965Z,23.78
2018-08-13T15:07:22.424Z,23.67
2018-08-13T15:10:25.471Z,23.42
2018-08-13T15:13:27.813Z,23.41
2018-08-13T15:16:30.087Z,23.65
2018-08-13T15:19:32.389Z,23.63
2018-08-13T15:22:34.588Z,23.70
2018-08-13T15:25:37.008Z,23.86
2018-08-13T15:28:39.269Z,23.78
2018-08-13T15:31:41.611Z,23.66
2018-08-13T15:34:43.890Z,24.75
2018-08-13T15:37:46.879Z,25.25
2018-08-13T15:40:49.155Z,25.56
2018-08-13T15:43:51.564Z,24.51
2018-08-13T15:46:53.870Z,24.41
2018-08-13T15:49:56.235Z,24.81
2018-08-13T15:52:58.569Z,24.86
2018-08-13T15:56:00.864Z,24.85
2018-08-13T15:59:03.536Z,24.99
2018-08-13T16:02:06.810Z,24.43
2018-08-13T16:05:09.925Z,25.09
2018-08-13T16:08:12.183Z,25.63
2018-08-13T16:11:14.516Z,25.52
2018-08-13T16:14:17.501Z,25.36
2018-08-13T16:17:19.837Z,25.63
2018-08-13T16:20:22.201Z,24.35
2018-08-13T16:23:24.463Z,24.72
2018-08-13T16:26:27.417Z,24.21
2018-08-13T16:29:29.882Z,23.81
2018-08-13T16:32:32.117Z,23.40
2018-08-13T16:35:34.420Z,23.37
2018-08-13T16:38:36.853Z,23.35
2018-08-13T16:41:39.157Z,23.19
2018-08-13T16:44:41.550Z,23.10
2018-08-13T16:47:45.952Z,23.13
2018-08-13T16:50:53.026Z,23.11
2018-08-13T16:53:55.771Z,22.97
2018-08-13T16:56:58.076Z,22.86
2018-08-13T17:00:01.110Z,22.75
2018-08-13T17:03:03.526Z,22.57
2018-08-13T17:06:06.408Z,22.58
2018-08-13T17:09:09.596Z,22.61
2018-08-13T17:12:11.823Z,22.56
2018-08-13T17:15:14.097Z,22.47
2018-08-13T17:18:16.414Z,22.34
2018-08-13T17:21:19.666Z,22.24
2018-08-13T17:24:22.021Z,21.88
2018-08-13T17:27:24.398Z,21.25
2018-08-13T17:30:26.941Z,20.98
2018-08-13T17:33:29.253Z,20.60
2018-08-13T17:36:31.659Z,19.97
2018-08-13T17:39:35.296Z,18.96
2018-08-13T17:42:37.673Z,18.31
2018-08-13T17:48:57.741Z,17.39
2018-08-13T17:52:00.014Z,17.26
2018-08-13T17:55:02.385Z,17.28
2018-08-13T17:58:05.817Z,17.43
2018-08-13T18:01:08.102Z,17.61
2018-08-13T18:04:11.237Z,18.04
2018-08-13T18:07:13.572Z,18.59
2018-08-13T18:10:18.766Z,18.99
2018-08-13T18:13:21.206Z,19.36
2018-08-13T18:16:23.632Z,19.56
2018-08-13T18:19:25.974Z,19.19
2018-08-13T18:22:28.343Z,18.88
2018-08-13T18:25:30.660Z,18.74
2018-08-13T18:28:32.908Z,18.88
2018-08-13T18:31:35.154Z,18.89
2018-08-13T18:34:37.614Z,18.66
2018-08-13T18:37:40.148Z,18.37
2018-08-13T18:40:42.458Z,18.15
2018-08-13T18:43:44.712Z,17.86
2018-08-13T18:46:47.292Z,17.63
2018-08-13T18:49:49.673Z,17.43
2018-08-13T18:52:52.429Z,17.20
2018-08-13T18:55:54.796Z,17.12
2018-08-13T18:58:57.166Z,17.04
2018-08-13T19:01:59.420Z,17.03
2018-08-13T19:05:01.701Z,16.93
2018-08-13T19:08:04.066Z,16.90
2018-08-13T19:11:06.608Z,16.79
2018-08-13T19:14:08.845Z,16.74
2018-08-13T19:17:11.117Z,16.74
2018-08-13T19:20:14.552Z,16.67
2018-08-13T19:23:17.199Z,16.66
2018-08-13T19:26:19.487Z,16.69
2018-08-13T19:29:21.739Z,16.69
2018-08-13T19:32:24.145Z,16.68
2018-08-13T19:35:26.445Z,16.62
2018-08-13T19:38:28.823Z,16.62
2018-08-13T19:41:31.077Z,16.59
2018-08-13T19:44:33.428Z,16.66
2018-08-13T19:47:35.722Z,16.57
2018-08-13T19:50:37.981Z,16.54
2018-08-13T19:53:40.302Z,16.45
2018-08-13T19:56:42.538Z,16.45
2018-08-13T19:59:44.821Z,16.39
2018-08-13T20:02:47.784Z,16.40
2018-08-13T20:05:50.038Z,16.42
2018-08-13T20:08:52.331Z,16.46
2018-08-13T20:11:55.114Z,16.60
2018-08-13T20:14:57.290Z,16.58
2018-08-13T20:17:59.570Z,16.54
2018-08-13T20:21:01.862Z,16.49
2018-08-13T20:24:04.098Z,16.39
2018-08-13T20:27:06.346Z,16.41
2018-08-13T20:30:10.734Z,16.48
2018-08-13T20:33:13.031Z,16.51
2018-08-13T20:36:15.300Z,16.62
2018-08-13T20:39:17.560Z,16.80
2018-08-13T20:42:19.796Z,16.76
2018-08-13T20:45:22.287Z,16.61
2018-08-13T20:48:24.600Z,16.51
2018-08-13T20:51:27.044Z,16.46
2018-08-13T20:54:29.311Z,16.41
2018-08-13T20:57:32.484Z,16.49
2018-08-13T21:01:05.574Z,16.43
2018-08-13T21:04:07.885Z,16.45
2018-08-13T21:07:10.229Z,16.55
2018-08-13T21:10:14.293Z,16.54
2018-08-13T21:13:16.525Z,16.58
2018-08-13T21:16:18.912Z,16.57
2018-08-13T21:19:21.237Z,16.55
2018-08-13T21:22:23.568Z,16.42
2018-08-13T21:25:25.801Z,16.44
2018-08-13T21:28:28.120Z,16.55
2018-08-13T21:31:30.470Z,16.49
2018-08-13T21:34:32.780Z,16.49
2018-08-13T21:37:35.397Z,16.47
2018-08-13T21:40:37.677Z,16.48
2018-08-13T21:43:40.003Z,16.48
2018-08-13T21:46:42.329Z,16.39
2018-08-13T21:49:44.512Z,16.25
2018-08-13T21:52:47.418Z,16.14
2018-08-13T21:55:49.656Z,16.03
2018-08-13T21:58:51.910Z,15.93
2018-08-13T22:01:54.183Z,15.85
2018-08-13T22:04:56.440Z,15.80
2018-08-13T22:07:58.846Z,15.80
2018-08-13T22:11:01.171Z,15.87
2018-08-13T22:14:03.681Z,15.85
2018-08-13T22:17:05.955Z,15.81
2018-08-13T22:20:08.151Z,15.77
2018-08-13T22:23:10.515Z,15.78
2018-08-13T22:26:12.720Z,15.77
2018-08-13T22:29:14.948Z,15.81
2018-08-13T22:32:17.201Z,15.84
2018-08-13T22:35:19.454Z,15.86
2018-08-13T22:38:21.664Z,16.00
2018-08-13T22:41:23.871Z,16.23
2018-08-13T22:44:26.223Z,16.40
2018-08-13T22:47:28.534Z,16.52
2018-08-13T22:50:30.817Z,16.53
2018-08-13T22:53:33.134Z,16.53
2018-08-13T22:56:35.313Z,16.40
2018-08-13T22:59:37.554Z,16.25
2018-08-13T23:02:39.917Z,16.13
2018-08-13T23:05:42.204Z,15.90
2018-08-13T23:08:45.399Z,15.70
2018-08-13T23:11:47.854Z,15.52
2018-08-13T23:14:50.154Z,15.40
2018-08-13T23:17:52.850Z,15.34
2018-08-13T23:20:55.245Z,15.29
2018-08-13T23:23:57.577Z,15.39
2018-08-13T23:26:59.868Z,15.42
2018-08-13T23:30:02.176Z,15.42
2018-08-13T23:33:05.716Z,15.23
2018-08-13T23:36:07.974Z,15.05
2018-08-13T23:39:12.197Z,14.94
2018-08-13T23:42:14.423Z,14.86
2018-08-13T23:45:18.806Z,14.89
2018-08-13T23:48:21.119Z,14.80
2018-08-13T23:51:23.412Z,14.82
2018-08-13T23:54:25.628Z,14.74
2018-08-13T23:57:27.974Z,14.64
